sensor_id;sensor_type;location;lat;lon;timestamp;P1;durP1;ratioP1;P2;durP2;ratioP2
43527;SDS011;52359;42.658;23.320;2022-09-03T00:01:37;8.98;;;5.45;;
43527;SDS011;52359;42.658;23.320;2022-09-03T00:04:06;6.70;;;5.00;;
43527;SDS011;52359;42.658;23.320;2022-09-03T00:06:37;5.38;;;4.65;;
43527;SDS011;52359;42.658;23.320;2022-09-03T00:09:11;7.10;;;5.00;;
43527;SDS011;52359;42.658;23.320;2022-09-03T00:11:49;7.45;;;4.82;;
43527;SDS011;52359;42.658;23.320;2022-09-03T00:14:25;7.80;;;5.13;;
43527;SDS011;52359;42.658;23.320;2022-09-03T00:16:54;8.07;;;5.60;;
43527;SDS011;52359;42.658;23.320;2022-09-03T00:19:23;5.32;;;4.63;;
43527;SDS011;52359;42.658;23.320;2022-09-03T00:21:52;7.18;;;5.15;;
43527;SDS011;52359;42.658;23.320;2022-09-03T00:24:21;7.18;;;5.20;;
43527;SDS011;52359;42.658;23.320;2022-09-03T00:26:51;5.75;;;5.15;;
43527;SDS011;52359;42.658;23.320;2022-09-03T00:29:20;5.32;;;4.82;;
43527;SDS011;52359;42.658;23.320;2022-09-03T00:31:49;6.88;;;5.40;;
43527;SDS011;52359;42.658;23.320;2022-09-03T00:36:48;6.90;;;5.47;;
43527;SDS011;52359;42.658;23.320;2022-09-03T00:39:15;8.43;;;5.22;;
43527;SDS011;52359;42.658;23.320;2022-09-03T00:49:38;8.35;;;5.57;;
43527;SDS011;52359;42.658;23.320;2022-09-03T00:52:10;6.93;;;5.88;;
43527;SDS011;52359;42.658;23.320;2022-09-03T00:54:46;11.60;;;5.72;;
43527;SDS011;52359;42.658;23.320;2022-09-03T01:02:39;7.50;;;5.80;;
43527;SDS011;52359;42.658;23.320;2022-09-03T01:20:51;6.07;;;5.47;;
43527;SDS011;52359;42.658;23.320;2022-09-03T01:33:40;10.73;;;6.28;;
43527;SDS011;52359;42.658;23.320;2022-09-03T01:36:17;7.00;;;6.05;;
43527;SDS011;52359;42.658;23.320;2022-09-03T01:38:52;7.95;;;5.75;;
43527;SDS011;52359;42.658;23.320;2022-09-03T01:46:56;6.00;;;5.40;;
43527;SDS011;52359;42.658;23.320;2022-09-03T01:50:15;6.55;;;5.43;;
43527;SDS011;52359;42.658;23.320;2022-09-03T01:52:18;6.47;;;5.88;;
43527;SDS011;52359;42.658;23.320;2022-09-03T01:57:22;6.38;;;5.28;;
43527;SDS011;52359;42.658;23.320;2022-09-03T02:02:24;8.23;;;5.70;;
43527;SDS011;52359;42.658;23.320;2022-09-03T02:07:23;7.38;;;5.00;;
43527;SDS011;52359;42.658;23.320;2022-09-03T02:09:50;8.05;;;5.40;;
43527;SDS011;52359;42.658;23.320;2022-09-03T02:12:16;8.35;;;5.35;;
43527;SDS011;52359;42.658;23.320;2022-09-03T02:14:44;8.05;;;5.22;;
43527;SDS011;52359;42.658;23.320;2022-09-03T02:17:10;8.15;;;4.85;;
43527;SDS011;52359;42.658;23.320;2022-09-03T02:19:37;5.60;;;5.07;;
43527;SDS011;52359;42.658;23.320;2022-09-03T02:22:03;8.15;;;6.03;;
43527;SDS011;52359;42.658;23.320;2022-09-03T02:24:30;7.00;;;5.72;;
43527;SDS011;52359;42.658;23.320;2022-09-03T02:26:56;8.82;;;6.50;;
43527;SDS011;52359;42.658;23.320;2022-09-03T02:29:23;6.45;;;5.75;;
43527;SDS011;52359;42.658;23.320;2022-09-03T02:31:49;8.23;;;5.90;;
43527;SDS011;52359;42.658;23.320;2022-09-03T02:34:15;6.65;;;5.90;;
43527;SDS011;52359;42.658;23.320;2022-09-03T02:36:42;12.70;;;5.85;;
43527;SDS011;52359;42.658;23.320;2022-09-03T02:39:12;6.65;;;5.95;;
43527;SDS011;52359;42.658;23.320;2022-09-03T02:41:38;9.35;;;6.38;;
43527;SDS011;52359;42.658;23.320;2022-09-03T02:46:32;7.57;;;6.28;;
43527;SDS011;52359;42.658;23.320;2022-09-03T02:48:59;10.63;;;5.72;;
43527;SDS011;52359;42.658;23.320;2022-09-03T02:51:25;7.47;;;6.00;;
43527;SDS011;52359;42.658;23.320;2022-09-03T02:53:51;7.55;;;5.88;;
43527;SDS011;52359;42.658;23.320;2022-09-03T02:56:17;8.68;;;6.47;;
43527;SDS011;52359;42.658;23.320;2022-09-03T02:58:43;7.80;;;6.25;;
43527;SDS011;52359;42.658;23.320;2022-09-03T03:01:09;9.40;;;6.60;;
43527;SDS011;52359;42.658;23.320;2022-09-03T03:03:35;6.13;;;5.53;;
43527;SDS011;52359;42.658;23.320;2022-09-03T03:06:02;8.98;;;6.38;;
43527;SDS011;52359;42.658;23.320;2022-09-03T03:08:29;10.00;;;7.05;;
43527;SDS011;52359;42.658;23.320;2022-09-03T03:10:57;7.60;;;6.80;;
43527;SDS011;52359;42.658;23.320;2022-09-03T03:13:28;9.50;;;6.00;;
43527;SDS011;52359;42.658;23.320;2022-09-03T03:15:55;7.07;;;6.38;;
43527;SDS011;52359;42.658;23.320;2022-09-03T03:18:21;13.55;;;6.85;;
43527;SDS011;52359;42.658;23.320;2022-09-03T03:20:47;11.40;;;7.78;;
43527;SDS011;52359;42.658;23.320;2022-09-03T03:23:13;16.17;;;7.75;;
43527;SDS011;52359;42.658;23.320;2022-09-03T03:25:39;15.57;;;7.95;;
43527;SDS011;52359;42.658;23.320;2022-09-03T03:28:06;9.73;;;7.60;;
43527;SDS011;52359;42.658;23.320;2022-09-03T03:30:32;12.00;;;7.55;;
43527;SDS011;52359;42.658;23.320;2022-09-03T03:32:59;10.43;;;7.53;;
43527;SDS011;52359;42.658;23.320;2022-09-03T03:35:25;8.57;;;7.68;;
43527;SDS011;52359;42.658;23.320;2022-09-03T03:37:51;8.85;;;7.50;;
43527;SDS011;52359;42.658;23.320;2022-09-03T03:40:17;8.98;;;6.53;;
43527;SDS011;52359;42.658;23.320;2022-09-03T03:42:44;8.23;;;6.82;;
43527;SDS011;52359;42.658;23.320;2022-09-03T03:45:10;10.43;;;7.18;;
43527;SDS011;52359;42.658;23.320;2022-09-03T03:47:36;9.52;;;7.35;;
43527;SDS011;52359;42.658;23.320;2022-09-03T03:50:03;10.70;;;7.30;;
43527;SDS011;52359;42.658;23.320;2022-09-03T03:52:29;8.68;;;6.97;;
43527;SDS011;52359;42.658;23.320;2022-09-03T03:54:55;11.65;;;6.68;;
43527;SDS011;52359;42.658;23.320;2022-09-03T03:57:21;8.90;;;6.93;;
43527;SDS011;52359;42.658;23.320;2022-09-03T03:59:48;11.18;;;7.25;;
43527;SDS011;52359;42.658;23.320;2022-09-03T04:02:14;8.50;;;6.93;;
43527;SDS011;52359;42.658;23.320;2022-09-03T04:04:40;8.07;;;7.25;;
43527;SDS011;52359;42.658;23.320;2022-09-03T04:07:07;10.45;;;7.07;;
43527;SDS011;52359;42.658;23.320;2022-09-03T04:09:33;8.55;;;6.72;;
43527;SDS011;52359;42.658;23.320;2022-09-03T04:11:59;14.13;;;8.77;;
43527;SDS011;52359;42.658;23.320;2022-09-03T04:14:26;8.77;;;7.47;;
43527;SDS011;52359;42.658;23.320;2022-09-03T04:16:52;8.55;;;7.18;;
43527;SDS011;52359;42.658;23.320;2022-09-03T04:19:18;12.63;;;7.25;;
43527;SDS011;52359;42.658;23.320;2022-09-03T04:21:45;9.00;;;6.43;;
43527;SDS011;52359;42.658;23.320;2022-09-03T04:24:11;8.82;;;6.75;;
43527;SDS011;52359;42.658;23.320;2022-09-03T04:26:37;7.63;;;6.82;;
43527;SDS011;52359;42.658;23.320;2022-09-03T04:29:05;13.55;;;7.57;;
43527;SDS011;52359;42.658;23.320;2022-09-03T04:31:32;17.55;;;9.63;;
43527;SDS011;52359;42.658;23.320;2022-09-03T04:33:58;7.60;;;6.57;;
43527;SDS011;52359;42.658;23.320;2022-09-03T04:36:25;13.57;;;7.80;;
43527;SDS011;52359;42.658;23.320;2022-09-03T04:38:52;8.23;;;7.18;;
43527;SDS011;52359;42.658;23.320;2022-09-03T04:41:20;8.30;;;7.20;;
43527;SDS011;52359;42.658;23.320;2022-09-03T04:43:49;8.95;;;7.15;;
43527;SDS011;52359;42.658;23.320;2022-09-03T04:46:15;13.18;;;6.45;;
43527;SDS011;52359;42.658;23.320;2022-09-03T04:48:42;8.35;;;6.13;;
43527;SDS011;52359;42.658;23.320;2022-09-03T04:51:09;10.52;;;7.35;;
43527;SDS011;52359;42.658;23.320;2022-09-03T04:53:38;7.78;;;6.95;;
43527;SDS011;52359;42.658;23.320;2022-09-03T04:56:14;8.52;;;6.65;;
43527;SDS011;52359;42.658;23.320;2022-09-03T04:58:41;6.30;;;5.70;;
43527;SDS011;52359;42.658;23.320;2022-09-03T05:01:11;7.05;;;6.35;;
43527;SDS011;52359;42.658;23.320;2022-09-03T05:03:37;6.40;;;5.80;;
43527;SDS011;52359;42.658;23.320;2022-09-03T05:06:03;7.38;;;6.47;;
43527;SDS011;52359;42.658;23.320;2022-09-03T05:08:30;7.90;;;6.43;;
43527;SDS011;52359;42.658;23.320;2022-09-03T05:10:57;6.85;;;6.15;;
43527;SDS011;52359;42.658;23.320;2022-09-03T05:13:24;8.02;;;6.82;;
43527;SDS011;52359;42.658;23.320;2022-09-03T05:15:50;8.57;;;6.70;;
43527;SDS011;52359;42.658;23.320;2022-09-03T05:18:16;8.30;;;6.47;;
43527;SDS011;52359;42.658;23.320;2022-09-03T05:20:42;10.60;;;6.32;;
43527;SDS011;52359;42.658;23.320;2022-09-03T05:23:08;7.57;;;6.50;;
43527;SDS011;52359;42.658;23.320;2022-09-03T05:25:33;11.23;;;7.00;;
43527;SDS011;52359;42.658;23.320;2022-09-03T05:28:02;13.02;;;8.82;;
43527;SDS011;52359;42.658;23.320;2022-09-03T05:30:29;7.00;;;6.30;;
43527;SDS011;52359;42.658;23.320;2022-09-03T05:32:55;7.72;;;6.35;;
43527;SDS011;52359;42.658;23.320;2022-09-03T05:35:21;7.03;;;6.30;;
43527;SDS011;52359;42.658;23.320;2022-09-03T05:37:46;7.32;;;5.88;;
43527;SDS011;52359;42.658;23.320;2022-09-03T05:40:12;8.68;;;7.53;;
43527;SDS011;52359;42.658;23.320;2022-09-03T05:42:39;7.72;;;6.38;;
43527;SDS011;52359;42.658;23.320;2022-09-03T05:45:06;8.20;;;7.15;;
43527;SDS011;52359;42.658;23.320;2022-09-03T05:47:34;10.10;;;7.03;;
43527;SDS011;52359;42.658;23.320;2022-09-03T05:50:01;8.63;;;6.75;;
43527;SDS011;52359;42.658;23.320;2022-09-03T05:52:27;6.97;;;6.28;;
43527;SDS011;52359;42.658;23.320;2022-09-03T05:54:53;7.80;;;6.18;;
43527;SDS011;52359;42.658;23.320;2022-09-03T05:57:19;11.38;;;5.50;;
43527;SDS011;52359;42.658;23.320;2022-09-03T05:59:45;10.00;;;6.05;;
43527;SDS011;52359;42.658;23.320;2022-09-03T06:02:10;8.48;;;6.03;;
43527;SDS011;52359;42.658;23.320;2022-09-03T06:04:37;5.78;;;5.15;;
43527;SDS011;52359;42.658;23.320;2022-09-03T06:07:02;8.43;;;5.40;;
43527;SDS011;52359;42.658;23.320;2022-09-03T06:09:28;8.10;;;6.03;;
43527;SDS011;52359;42.658;23.320;2022-09-03T06:11:54;7.47;;;6.18;;
43527;SDS011;52359;42.658;23.320;2022-09-03T06:14:20;5.32;;;4.72;;
43527;SDS011;52359;42.658;23.320;2022-09-03T06:16:47;7.50;;;6.13;;
43527;SDS011;52359;42.658;23.320;2022-09-03T06:19:13;5.68;;;4.90;;
43527;SDS011;52359;42.658;23.320;2022-09-03T06:21:43;7.47;;;6.05;;
43527;SDS011;52359;42.658;23.320;2022-09-03T06:24:10;6.55;;;5.95;;
43527;SDS011;52359;42.658;23.320;2022-09-03T06:26:36;6.80;;;6.05;;
43527;SDS011;52359;42.658;23.320;2022-09-03T06:29:03;8.85;;;7.38;;
43527;SDS011;52359;42.658;23.320;2022-09-03T06:31:29;7.03;;;5.68;;
43527;SDS011;52359;42.658;23.320;2022-09-03T06:33:55;7.10;;;6.05;;
43527;SDS011;52359;42.658;23.320;2022-09-03T06:36:21;7.47;;;5.70;;
43527;SDS011;52359;42.658;23.320;2022-09-03T06:38:50;9.13;;;5.97;;
43527;SDS011;52359;42.658;23.320;2022-09-03T06:41:19;6.07;;;5.47;;
43527;SDS011;52359;42.658;23.320;2022-09-03T06:43:49;6.85;;;5.55;;
43527;SDS011;52359;42.658;23.320;2022-09-03T06:46:23;7.43;;;6.00;;
43527;SDS011;52359;42.658;23.320;2022-09-03T06:48:50;10.38;;;7.30;;
43527;SDS011;52359;42.658;23.320;2022-09-03T06:51:21;6.68;;;6.07;;
43527;SDS011;52359;42.658;23.320;2022-09-03T06:53:48;5.90;;;5.38;;
43527;SDS011;52359;42.658;23.320;2022-09-03T06:56:22;5.35;;;4.90;;
43527;SDS011;52359;42.658;23.320;2022-09-03T06:58:51;5.75;;;5.20;;
43527;SDS011;52359;42.658;23.320;2022-09-03T07:01:21;5.45;;;4.95;;
43527;SDS011;52359;42.658;23.320;2022-09-03T07:03:53;5.82;;;5.32;;
43527;SDS011;52359;42.658;23.320;2022-09-03T07:06:20;6.55;;;5.90;;
43527;SDS011;52359;42.658;23.320;2022-09-03T07:08:46;6.25;;;5.65;;
43527;SDS011;52359;42.658;23.320;2022-09-03T07:11:16;6.72;;;6.13;;
43527;SDS011;52359;42.658;23.320;2022-09-03T07:13:47;6.10;;;5.60;;
43527;SDS011;52359;42.658;23.320;2022-09-03T07:16:14;6.22;;;5.68;;
43527;SDS011;52359;42.658;23.320;2022-09-03T07:18:41;10.38;;;5.90;;
43527;SDS011;52359;42.658;23.320;2022-09-03T07:21:14;8.43;;;5.07;;
43527;SDS011;52359;42.658;23.320;2022-09-03T07:23:41;5.57;;;5.07;;
43527;SDS011;52359;42.658;23.320;2022-09-03T07:26:11;8.60;;;7.80;;
43527;SDS011;52359;42.658;23.320;2022-09-03T07:28:38;7.07;;;6.38;;
43527;SDS011;52359;42.658;23.320;2022-09-03T07:31:23;7.43;;;6.60;;
43527;SDS011;52359;42.658;23.320;2022-09-03T07:33:54;5.93;;;5.32;;
43527;SDS011;52359;42.658;23.320;2022-09-03T07:36:21;8.95;;;5.60;;
43527;SDS011;52359;42.658;23.320;2022-09-03T07:38:48;5.78;;;4.45;;
43527;SDS011;52359;42.658;23.320;2022-09-03T07:41:14;5.15;;;4.68;;
43527;SDS011;52359;42.658;23.320;2022-09-03T07:43:41;5.25;;;4.85;;
43527;SDS011;52359;42.658;23.320;2022-09-03T07:46:10;6.40;;;5.43;;
43527;SDS011;52359;42.658;23.320;2022-09-03T07:48:39;5.33;;;4.80;;
43527;SDS011;52359;42.658;23.320;2022-09-03T07:51:06;4.57;;;4.28;;
43527;SDS011;52359;42.658;23.320;2022-09-03T07:53:32;5.60;;;5.07;;
43527;SDS011;52359;42.658;23.320;2022-09-03T07:56:06;6.28;;;5.68;;
43527;SDS011;52359;42.658;23.320;2022-09-03T07:58:33;5.65;;;4.90;;
43527;SDS011;52359;42.658;23.320;2022-09-03T08:01:03;4.70;;;4.30;;
43527;SDS011;52359;42.658;23.320;2022-09-03T08:03:29;4.93;;;4.53;;
43527;SDS011;52359;42.658;23.320;2022-09-03T08:05:59;6.35;;;5.75;;
43527;SDS011;52359;42.658;23.320;2022-09-03T08:08:26;4.88;;;4.47;;
43527;SDS011;52359;42.658;23.320;2022-09-03T08:10:51;4.65;;;4.22;;
43527;SDS011;52359;42.658;23.320;2022-09-03T08:13:18;7.93;;;6.25;;
43527;SDS011;52359;42.658;23.320;2022-09-03T08:15:52;6.68;;;4.80;;
43527;SDS011;52359;42.658;23.320;2022-09-03T08:18:23;4.82;;;4.32;;
43527;SDS011;52359;42.658;23.320;2022-09-03T08:20:49;4.93;;;4.53;;
43527;SDS011;52359;42.658;23.320;2022-09-03T08:23:15;4.63;;;4.22;;
43527;SDS011;52359;42.658;23.320;2022-09-03T08:25:41;5.30;;;4.85;;
43527;SDS011;52359;42.658;23.320;2022-09-03T08:28:08;6.25;;;5.65;;
43527;SDS011;52359;42.658;23.320;2022-09-03T08:30:34;4.80;;;4.40;;
43527;SDS011;52359;42.658;23.320;2022-09-03T08:33:01;4.53;;;4.13;;
43527;SDS011;52359;42.658;23.320;2022-09-03T08:35:30;4.45;;;4.05;;
43527;SDS011;52359;42.658;23.320;2022-09-03T08:37:58;4.68;;;4.32;;
43527;SDS011;52359;42.658;23.320;2022-09-03T08:40:29;4.47;;;4.15;;
43527;SDS011;52359;42.658;23.320;2022-09-03T08:43:09;4.97;;;4.65;;
43527;SDS011;52359;42.658;23.320;2022-09-03T08:45:37;5.13;;;4.68;;
43527;SDS011;52359;42.658;23.320;2022-09-03T08:48:04;8.35;;;4.60;;
43527;SDS011;52359;42.658;23.320;2022-09-03T08:50:42;6.43;;;5.85;;
43527;SDS011;52359;42.658;23.320;2022-09-03T08:53:24;5.45;;;4.95;;
43527;SDS011;52359;42.658;23.320;2022-09-03T08:55:53;4.63;;;3.78;;
43527;SDS011;52359;42.658;23.320;2022-09-03T08:58:21;7.03;;;4.30;;
43527;SDS011;52359;42.658;23.320;2022-09-03T09:14:34;5.65;;;5.15;;
43527;SDS011;52359;42.658;23.320;2022-09-03T09:22:42;5.57;;;5.18;;
43527;SDS011;52359;42.658;23.320;2022-09-03T09:25:11;5.25;;;4.82;;
43527;SDS011;52359;42.658;23.320;2022-09-03T09:27:45;5.15;;;4.65;;
43527;SDS011;52359;42.658;23.320;2022-09-03T09:30:16;4.65;;;4.30;;
43527;SDS011;52359;42.658;23.320;2022-09-03T09:32:42;4.35;;;4.05;;
43527;SDS011;52359;42.658;23.320;2022-09-03T09:35:10;5.53;;;4.82;;
43527;SDS011;52359;42.658;23.320;2022-09-03T09:37:49;4.50;;;4.10;;
43527;SDS011;52359;42.658;23.320;2022-09-03T09:40:32;4.97;;;4.57;;
43527;SDS011;52359;42.658;23.320;2022-09-03T09:43:17;5.00;;;4.22;;
43527;SDS011;52359;42.658;23.320;2022-09-03T09:45:50;4.53;;;4.15;;
43527;SDS011;52359;42.658;23.320;2022-09-03T09:51:04;4.25;;;3.95;;
43527;SDS011;52359;42.658;23.320;2022-09-03T09:53:31;4.10;;;3.90;;
43527;SDS011;52359;42.658;23.320;2022-09-03T09:55:57;4.03;;;3.72;;
43527;SDS011;52359;42.658;23.320;2022-09-03T09:58:27;3.85;;;3.55;;
43527;SDS011;52359;42.658;23.320;2022-09-03T10:00:59;3.95;;;3.65;;
43527;SDS011;52359;42.658;23.320;2022-09-03T10:03:27;3.60;;;3.30;;
43527;SDS011;52359;42.658;23.320;2022-09-03T10:06:00;4.22;;;3.83;;
43527;SDS011;52359;42.658;23.320;2022-09-03T10:08:47;4.20;;;3.90;;
43527;SDS011;52359;42.658;23.320;2022-09-03T10:11:13;5.18;;;3.60;;
43527;SDS011;52359;42.658;23.320;2022-09-03T10:13:40;7.68;;;3.75;;
43527;SDS011;52359;42.658;23.320;2022-09-03T10:16:12;3.40;;;3.20;;
43527;SDS011;52359;42.658;23.320;2022-09-03T10:18:45;3.85;;;3.25;;
43527;SDS011;52359;42.658;23.320;2022-09-03T10:21:14;3.97;;;3.75;;
43527;SDS011;52359;42.658;23.320;2022-09-03T10:26:30;3.70;;;3.42;;
43527;SDS011;52359;42.658;23.320;2022-09-03T10:28:58;3.47;;;3.28;;
43527;SDS011;52359;42.658;23.320;2022-09-03T10:33:59;3.42;;;3.22;;
43527;SDS011;52359;42.658;23.320;2022-09-03T10:36:27;4.03;;;3.65;;
43527;SDS011;52359;42.658;23.320;2022-09-03T10:39:48;3.97;;;3.67;;
43527;SDS011;52359;42.658;23.320;2022-09-03T10:41:47;4.13;;;2.55;;
43527;SDS011;52359;42.658;23.320;2022-09-03T10:44:50;6.30;;;3.50;;
43527;SDS011;52359;42.658;23.320;2022-09-03T10:56:26;8.02;;;3.10;;
43527;SDS011;52359;42.658;23.320;2022-09-03T11:10:20;17.98;;;2.47;;
43527;SDS011;52359;42.658;23.320;2022-09-03T11:15:25;6.85;;;2.30;;
43527;SDS011;52359;42.658;23.320;2022-09-03T11:18:19;3.85;;;2.00;;
43527;SDS011;52359;42.658;23.320;2022-09-03T11:20:55;2.30;;;2.30;;
43527;SDS011;52359;42.658;23.320;2022-09-03T11:23:24;2.70;;;2.58;;
43527;SDS011;52359;42.658;23.320;2022-09-03T11:25:56;2.85;;;2.40;;
43527;SDS011;52359;42.658;23.320;2022-09-03T11:28:31;2.75;;;2.55;;
43527;SDS011;52359;42.658;23.320;2022-09-03T11:36:38;3.70;;;2.50;;
43527;SDS011;52359;42.658;23.320;2022-09-03T11:39:38;7.82;;;2.83;;
43527;SDS011;52359;42.658;23.320;2022-09-03T11:47:47;2.33;;;2.22;;
43527;SDS011;52359;42.658;23.320;2022-09-03T11:52:45;2.50;;;2.40;;
43527;SDS011;52359;42.658;23.320;2022-09-03T11:55:23;2.90;;;2.75;;
43527;SDS011;52359;42.658;23.320;2022-09-03T11:57:49;3.78;;;3.40;;
43527;SDS011;52359;42.658;23.320;2022-09-03T12:00:15;3.88;;;2.50;;
43527;SDS011;52359;42.658;23.320;2022-09-03T12:02:54;3.20;;;3.00;;
43527;SDS011;52359;42.658;23.320;2022-09-03T12:08:15;2.42;;;2.33;;
43527;SDS011;52359;42.658;23.320;2022-09-03T12:10:48;3.63;;;2.50;;
43527;SDS011;52359;42.658;23.320;2022-09-03T12:13:28;5.07;;;2.88;;
43527;SDS011;52359;42.658;23.320;2022-09-03T12:16:11;2.63;;;2.42;;
43527;SDS011;52359;42.658;23.320;2022-09-03T12:18:41;2.20;;;2.10;;
43527;SDS011;52359;42.658;23.320;2022-09-03T12:21:08;2.42;;;2.33;;
43527;SDS011;52359;42.658;23.320;2022-09-03T12:26:08;2.88;;;2.67;;
43527;SDS011;52359;42.658;23.320;2022-09-03T12:28:39;2.70;;;2.50;;
43527;SDS011;52359;42.658;23.320;2022-09-03T12:31:16;2.45;;;2.45;;
43527;SDS011;52359;42.658;23.320;2022-09-03T12:33:57;2.20;;;2.20;;
43527;SDS011;52359;42.658;23.320;2022-09-03T12:36:25;2.83;;;2.58;;
43527;SDS011;52359;42.658;23.320;2022-09-03T12:38:51;5.40;;;2.50;;
43527;SDS011;52359;42.658;23.320;2022-09-03T12:41:25;2.45;;;2.40;;
43527;SDS011;52359;42.658;23.320;2022-09-03T12:43:53;2.80;;;2.70;;
43527;SDS011;52359;42.658;23.320;2022-09-03T12:46:21;3.47;;;3.28;;
43527;SDS011;52359;42.658;23.320;2022-09-03T12:48:52;4.00;;;3.63;;
43527;SDS011;52359;42.658;23.320;2022-09-03T12:51:18;3.42;;;3.33;;
43527;SDS011;52359;42.658;23.320;2022-09-03T12:53:45;3.80;;;3.60;;
43527;SDS011;52359;42.658;23.320;2022-09-03T12:56:11;3.50;;;3.20;;
43527;SDS011;52359;42.658;23.320;2022-09-03T12:58:58;4.90;;;3.33;;
43527;SDS011;52359;42.658;23.320;2022-09-03T13:01:30;3.47;;;3.38;;
43527;SDS011;52359;42.658;23.320;2022-09-03T13:04:02;3.30;;;2.70;;
43527;SDS011;52359;42.658;23.320;2022-09-03T13:06:33;2.95;;;2.85;;
43527;SDS011;52359;42.658;23.320;2022-09-03T13:09:05;3.78;;;3.50;;
43527;SDS011;52359;42.658;23.320;2022-09-03T13:11:33;3.75;;;3.55;;
43527;SDS011;52359;42.658;23.320;2022-09-03T13:14:07;3.80;;;2.80;;
43527;SDS011;52359;42.658;23.320;2022-09-03T13:38:37;2.60;;;2.50;;
43527;SDS011;52359;42.658;23.320;2022-09-03T13:41:00;4.05;;;2.45;;
43527;SDS011;52359;42.658;23.320;2022-09-03T13:43:42;4.00;;;2.53;;
43527;SDS011;52359;42.658;23.320;2022-09-03T13:49:05;5.40;;;2.90;;
43527;SDS011;52359;42.658;23.320;2022-09-03T13:51:57;2.92;;;2.70;;
43527;SDS011;52359;42.658;23.320;2022-09-03T13:54:35;2.70;;;2.50;;
43527;SDS011;52359;42.658;23.320;2022-09-03T13:59:35;2.60;;;2.50;;
43527;SDS011;52359;42.658;23.320;2022-09-03T14:02:22;4.15;;;3.72;;
43527;SDS011;52359;42.658;23.320;2022-09-03T14:05:12;2.53;;;2.42;;
43527;SDS011;52359;42.658;23.320;2022-09-03T14:13:20;5.82;;;3.15;;
43527;SDS011;52359;42.658;23.320;2022-09-03T14:15:48;6.32;;;2.35;;
43527;SDS011;52359;42.658;23.320;2022-09-03T14:18:27;2.97;;;2.70;;
43527;SDS011;52359;42.658;23.320;2022-09-03T14:20:58;4.73;;;2.90;;
43527;SDS011;52359;42.658;23.320;2022-09-03T14:23:44;2.83;;;2.63;;
43527;SDS011;52359;42.658;23.320;2022-09-03T14:26:24;3.30;;;3.10;;
43527;SDS011;52359;42.658;23.320;2022-09-03T14:29:02;3.60;;;3.15;;
43527;SDS011;52359;42.658;23.320;2022-09-03T14:36:22;4.15;;;2.63;;
43527;SDS011;52359;42.658;23.320;2022-09-03T14:39:51;3.47;;;3.28;;
43527;SDS011;52359;42.658;23.320;2022-09-03T14:44:33;5.07;;;2.88;;
43527;SDS011;52359;42.658;23.320;2022-09-03T14:47:20;3.40;;;3.20;;
43527;SDS011;52359;42.658;23.320;2022-09-03T14:57:47;2.95;;;2.80;;
43527;SDS011;52359;42.658;23.320;2022-09-03T15:10:58;3.47;;;2.70;;
43527;SDS011;52359;42.658;23.320;2022-09-03T15:16:23;4.82;;;3.00;;
43527;SDS011;52359;42.658;23.320;2022-09-03T15:19:53;3.17;;;2.90;;
43527;SDS011;52359;42.658;23.320;2022-09-03T15:21:51;8.05;;;3.10;;
43527;SDS011;52359;42.658;23.320;2022-09-03T15:26:50;4.50;;;2.88;;
43527;SDS011;52359;42.658;23.320;2022-09-03T15:29:36;3.30;;;3.10;;
43527;SDS011;52359;42.658;23.320;2022-09-03T15:37:09;4.72;;;3.33;;
43527;SDS011;52359;42.658;23.320;2022-09-03T15:39:37;6.60;;;4.25;;
43527;SDS011;52359;42.658;23.320;2022-09-03T15:42:05;4.07;;;3.72;;
43527;SDS011;52359;42.658;23.320;2022-09-03T15:44:38;3.90;;;3.60;;
43527;SDS011;52359;42.658;23.320;2022-09-03T15:47:11;4.68;;;3.72;;
43527;SDS011;52359;42.658;23.320;2022-09-03T15:59:59;3.58;;;3.20;;
43527;SDS011;52359;42.658;23.320;2022-09-03T16:02:29;7.68;;;4.65;;
43527;SDS011;52359;42.658;23.320;2022-09-03T16:05:11;7.85;;;7.15;;
43527;SDS011;52359;42.658;23.320;2022-09-03T16:08:31;4.47;;;4.18;;
43527;SDS011;52359;42.658;23.320;2022-09-03T16:10:38;4.28;;;3.88;;
43527;SDS011;52359;42.658;23.320;2022-09-03T16:15:56;8.68;;;3.80;;
43527;SDS011;52359;42.658;23.320;2022-09-03T16:21:06;5.32;;;3.50;;
43527;SDS011;52359;42.658;23.320;2022-09-03T16:23:50;4.18;;;3.75;;
43527;SDS011;52359;42.658;23.320;2022-09-03T16:26:26;4.65;;;4.18;;
43527;SDS011;52359;42.658;23.320;2022-09-03T16:29:11;4.38;;;3.85;;
43527;SDS011;52359;42.658;23.320;2022-09-03T16:39:53;4.85;;;4.43;;
43527;SDS011;52359;42.658;23.320;2022-09-03T16:48:15;4.60;;;4.20;;
43527;SDS011;52359;42.658;23.320;2022-09-03T16:52:04;4.35;;;3.95;;
43527;SDS011;52359;42.658;23.320;2022-09-03T17:06:50;6.47;;;5.10;;
43527;SDS011;52359;42.658;23.320;2022-09-03T17:09:37;4.95;;;4.55;;
43527;SDS011;52359;42.658;23.320;2022-09-03T17:15:39;7.85;;;4.60;;
43527;SDS011;52359;42.658;23.320;2022-09-03T17:23:52;6.30;;;5.70;;
43527;SDS011;52359;42.658;23.320;2022-09-03T17:29:06;5.57;;;5.07;;
43527;SDS011;52359;42.658;23.320;2022-09-03T17:34:58;5.70;;;5.20;;
43527;SDS011;52359;42.658;23.320;2022-09-03T17:37:25;11.02;;;7.53;;
43527;SDS011;52359;42.658;23.320;2022-09-03T17:40:42;6.38;;;5.72;;
43527;SDS011;52359;42.658;23.320;2022-09-03T17:50:54;11.68;;;5.88;;
43527;SDS011;52359;42.658;23.320;2022-09-03T17:53:33;7.13;;;5.65;;
43527;SDS011;52359;42.658;23.320;2022-09-03T17:56:03;6.47;;;5.65;;
43527;SDS011;52359;42.658;23.320;2022-09-03T17:58:34;9.45;;;5.47;;
43527;SDS011;52359;42.658;23.320;2022-09-03T18:03:40;6.13;;;5.20;;
43527;SDS011;52359;42.658;23.320;2022-09-03T18:06:10;5.93;;;5.35;;
43527;SDS011;52359;42.658;23.320;2022-09-03T18:13:45;7.07;;;5.95;;
43527;SDS011;52359;42.658;23.320;2022-09-03T18:18:52;6.53;;;5.68;;
43527;SDS011;52359;42.658;23.320;2022-09-03T18:21:24;5.65;;;5.15;;
43527;SDS011;52359;42.658;23.320;2022-09-03T18:27:49;5.65;;;5.18;;
43527;SDS011;52359;42.658;23.320;2022-09-03T18:30:11;8.95;;;5.80;;
43527;SDS011;52359;42.658;23.320;2022-09-03T18:32:57;6.72;;;5.07;;
43527;SDS011;52359;42.658;23.320;2022-09-03T18:35:45;11.20;;;5.55;;
43527;SDS011;52359;42.658;23.320;2022-09-03T18:38:31;6.18;;;4.95;;
43527;SDS011;52359;42.658;23.320;2022-09-03T18:52:56;8.57;;;5.82;;
43527;SDS011;52359;42.658;23.320;2022-09-03T18:55:53;13.55;;;6.10;;
43527;SDS011;52359;42.658;23.320;2022-09-03T19:01:42;12.82;;;5.90;;
43527;SDS011;52359;42.658;23.320;2022-09-03T19:07:13;8.85;;;5.75;;
43527;SDS011;52359;42.658;23.320;2022-09-03T19:10:09;8.18;;;5.20;;
43527;SDS011;52359;42.658;23.320;2022-09-03T19:13:12;7.85;;;6.30;;
43527;SDS011;52359;42.658;23.320;2022-09-03T19:21:53;7.78;;;6.28;;
43527;SDS011;52359;42.658;23.320;2022-09-03T19:24:39;8.40;;;6.50;;
43527;SDS011;52359;42.658;23.320;2022-09-03T19:28:25;9.32;;;7.32;;
43527;SDS011;52359;42.658;23.320;2022-09-03T19:30:43;5.95;;;5.35;;
43527;SDS011;52359;42.658;23.320;2022-09-03T19:33:36;7.82;;;6.72;;
43527;SDS011;52359;42.658;23.320;2022-09-03T19:42:55;11.70;;;7.47;;
43527;SDS011;52359;42.658;23.320;2022-09-03T19:51:18;12.52;;;7.60;;
43527;SDS011;52359;42.658;23.320;2022-09-03T19:54:04;10.85;;;8.23;;
43527;SDS011;52359;42.658;23.320;2022-09-03T19:56:50;11.65;;;6.97;;
43527;SDS011;52359;42.658;23.320;2022-09-03T19:59:38;8.50;;;6.78;;
43527;SDS011;52359;42.658;23.320;2022-09-03T20:02:23;12.27;;;6.63;;
43527;SDS011;52359;42.658;23.320;2022-09-03T20:05:42;7.60;;;6.80;;
43527;SDS011;52359;42.658;23.320;2022-09-03T20:08:20;10.38;;;7.07;;
43527;SDS011;52359;42.658;23.320;2022-09-03T20:11:06;8.65;;;7.38;;
43527;SDS011;52359;42.658;23.320;2022-09-03T20:13:36;10.98;;;8.00;;